sensor_id;sensor_type;location;lat;lon;timestamp;pressure;altitude;pressure_sealevel;temperature
82780;BMP280;72511;45.120;20.720;2024-03-02T00:03:50;99726.44;;;10.78
82780;BMP280;72511;45.120;20.720;2024-03-02T00:13:53;99743.50;;;10.37
82780;BMP280;72511;45.120;20.720;2024-03-02T00:23:55;99732.44;;;10.19
82780;BMP280;72511;45.120;20.720;2024-03-02T00:33:59;99725.28;;;10.13
82780;BMP280;72511;45.120;20.720;2024-03-02T00:44:06;99729.53;;;10.26
82780;BMP280;72511;45.120;20.720;2024-03-02T00:54:10;99725.75;;;10.24
82780;BMP280;72511;45.120;20.720;2024-03-02T01:04:11;99722.53;;;10.29
82780;BMP280;72511;45.120;20.720;2024-03-02T01:14:15;99704.03;;;10.27
82780;BMP280;72511;45.120;20.720;2024-03-02T01:24:16;99694.34;;;10.14
82780;BMP280;72511;45.120;20.720;2024-03-02T01:34:18;99688.06;;;10.17
82780;BMP280;72511;45.120;20.720;2024-03-02T01:44:19;99686.34;;;10.23
82780;BMP280;72511;45.120;20.720;2024-03-02T01:54:20;99695.75;;;10.18
82780;BMP280;72511;45.120;20.720;2024-03-02T02:04:22;99693.91;;;10.15
82780;BMP280;72511;45.120;20.720;2024-03-02T02:14:28;99680.81;;;10.01
82780;BMP280;72511;45.120;20.720;2024-03-02T02:24:29;99686.31;;;9.98
82780;BMP280;72511;45.120;20.720;2024-03-02T02:34:31;99685.34;;;9.92
82780;BMP280;72511;45.120;20.720;2024-03-02T02:44:32;99680.22;;;9.81
82780;BMP280;72511;45.120;20.720;2024-03-02T02:54:33;99690.16;;;9.84
82780;BMP280;72511;45.120;20.720;2024-03-02T03:04:35;99694.50;;;9.82
82780;BMP280;72511;45.120;20.720;2024-03-02T03:14:36;99689.19;;;9.78
82780;BMP280;72511;45.120;20.720;2024-03-02T03:24:37;99693.69;;;9.69
82780;BMP280;72511;45.120;20.720;2024-03-02T03:34:39;99688.41;;;9.65
82780;BMP280;72511;45.120;20.720;2024-03-02T03:44:41;99691.84;;;9.66
82780;BMP280;72511;45.120;20.720;2024-03-02T03:54:42;99702.56;;;9.69
82780;BMP280;72511;45.120;20.720;2024-03-02T04:04:45;99692.19;;;9.68
82780;BMP280;72511;45.120;20.720;2024-03-02T04:14:47;99705.75;;;9.64
82780;BMP280;72511;45.120;20.720;2024-03-02T04:24:48;99710.59;;;9.57
82780;BMP280;72511;45.120;20.720;2024-03-02T04:34:49;99701.91;;;9.21
82780;BMP280;72511;45.120;20.720;2024-03-02T04:44:51;99731.09;;;9.10
82780;BMP280;72511;45.120;20.720;2024-03-02T04:54:52;99728.22;;;9.01
82780;BMP280;72511;45.120;20.720;2024-03-02T05:05:12;99718.88;;;8.89
82780;BMP280;72511;45.120;20.720;2024-03-02T05:15:14;99739.19;;;8.94
82780;BMP280;72511;45.120;20.720;2024-03-02T05:25:15;99717.59;;;8.94
82780;BMP280;72511;45.120;20.720;2024-03-02T05:35:17;99743.75;;;8.97
82780;BMP280;72511;45.120;20.720;2024-03-02T05:45:18;99737.19;;;8.98
82780;BMP280;72511;45.120;20.720;2024-03-02T05:55:20;99738.34;;;8.97
82780;BMP280;72511;45.120;20.720;2024-03-02T06:05:21;99766.19;;;9.10
82780;BMP280;72511;45.120;20.720;2024-03-02T06:15:22;99766.44;;;9.15
82780;BMP280;72511;45.120;20.720;2024-03-02T06:25:24;99781.34;;;9.20
82780;BMP280;72511;45.120;20.720;2024-03-02T06:35:25;99788.97;;;9.25
82780;BMP280;72511;45.120;20.720;2024-03-02T06:45:27;99804.06;;;9.22
82780;BMP280;72511;45.120;20.720;2024-03-02T06:55:29;99810.72;;;9.50
82780;BMP280;72511;45.120;20.720;2024-03-02T07:05:30;99801.69;;;9.56
82780;BMP280;72511;45.120;20.720;2024-03-02T07:15:32;99816.72;;;9.73
82780;BMP280;72511;45.120;20.720;2024-03-02T07:26:05;99839.88;;;10.03
82780;BMP280;72511;45.120;20.720;2024-03-02T07:36:07;99839.53;;;10.29
82780;BMP280;72511;45.120;20.720;2024-03-02T07:46:09;99829.94;;;10.41
82780;BMP280;72511;45.120;20.720;2024-03-02T07:56:10;99866.56;;;10.58
82780;BMP280;72511;45.120;20.720;2024-03-02T08:06:12;99874.19;;;10.47
82780;BMP280;72511;45.120;20.720;2024-03-02T08:16:15;99870.81;;;10.71
82780;BMP280;72511;45.120;20.720;2024-03-02T08:26:16;99882.72;;;10.74
82780;BMP280;72511;45.120;20.720;2024-03-02T08:36:18;99884.81;;;10.82
82780;BMP280;72511;45.120;20.720;2024-03-02T08:46:20;99875.94;;;11.07
82780;BMP280;72511;45.120;20.720;2024-03-02T08:56:22;99869.03;;;11.18
82780;BMP280;72511;45.120;20.720;2024-03-02T09:06:24;99886.88;;;11.41
82780;BMP280;72511;45.120;20.720;2024-03-02T09:16:26;99878.94;;;11.46
82780;BMP280;72511;45.120;20.720;2024-03-02T09:26:31;99906.03;;;11.59
82780;BMP280;72511;45.120;20.720;2024-03-02T09:36:33;99904.94;;;11.81
82780;BMP280;72511;45.120;20.720;2024-03-02T09:46:34;99888.81;;;11.99
82780;BMP280;72511;45.120;20.720;2024-03-02T09:56:37;99895.28;;;12.36
82780;BMP280;72511;45.120;20.720;2024-03-02T10:06:40;99878.53;;;12.59
82780;BMP280;72511;45.120;20.720;2024-03-02T10:16:42;99896.97;;;12.94
82780;BMP280;72511;45.120;20.720;2024-03-02T10:26:44;99887.09;;;13.09
82780;BMP280;72511;45.120;20.720;2024-03-02T10:36:46;99887.94;;;13.46
82780;BMP280;72511;45.120;20.720;2024-03-02T10:46:49;99885.19;;;13.37
82780;BMP280;72511;45.120;20.720;2024-03-02T10:56:53;99876.06;;;13.70
82780;BMP280;72511;45.120;20.720;2024-03-02T11:07:05;99889.34;;;14.13
82780;BMP280;72511;45.120;20.720;2024-03-02T11:17:07;99870.38;;;14.55
82780;BMP280;72511;45.120;20.720;2024-03-02T11:27:10;99887.69;;;14.25
82780;BMP280;72511;45.120;20.720;2024-03-02T11:37:17;99873.09;;;14.55
82780;BMP280;72511;45.120;20.720;2024-03-02T11:47:19;99870.38;;;14.46
82780;BMP280;72511;45.120;20.720;2024-03-02T11:57:21;99864.94;;;14.87
82780;BMP280;72511;45.120;20.720;2024-03-02T12:07:27;99857.97;;;15.19
82780;BMP280;72511;45.120;20.720;2024-03-02T12:17:29;99836.25;;;15.10
82780;BMP280;72511;45.120;20.720;2024-03-02T12:27:30;99845.72;;;15.61
82780;BMP280;72511;45.120;20.720;2024-03-02T12:37:31;99848.59;;;15.81
82780;BMP280;72511;45.120;20.720;2024-03-02T12:47:35;99861.88;;;16.03
82780;BMP280;72511;45.120;20.720;2024-03-02T12:57:36;99849.34;;;16.11
82780;BMP280;72511;45.120;20.720;2024-03-02T13:07:38;99849.06;;;15.94
82780;BMP280;72511;45.120;20.720;2024-03-02T13:17:40;99849.25;;;15.76
82780;BMP280;72511;45.120;20.720;2024-03-02T13:27:42;99828.31;;;15.73
82780;BMP280;72511;45.120;20.720;2024-03-02T13:37:44;99848.13;;;15.97
82780;BMP280;72511;45.120;20.720;2024-03-02T13:47:45;99824.97;;;16.07
82780;BMP280;72511;45.120;20.720;2024-03-02T13:57:47;99834.66;;;15.79
82780;BMP280;72511;45.120;20.720;2024-03-02T14:07:49;99844.69;;;15.73
82780;BMP280;72511;45.120;20.720;2024-03-02T14:17:51;99819.91;;;15.24
82780;BMP280;72511;45.120;20.720;2024-03-02T14:27:52;99823.25;;;15.66
82780;BMP280;72511;45.120;20.720;2024-03-02T14:37:54;99806.84;;;15.52
82780;BMP280;72511;45.120;20.720;2024-03-02T14:47:56;99812.75;;;15.36
82780;BMP280;72511;45.120;20.720;2024-03-02T14:58:00;99829.81;;;15.22
82780;BMP280;72511;45.120;20.720;2024-03-02T15:08:02;99830.13;;;15.15
82780;BMP280;72511;45.120;20.720;2024-03-02T15:18:06;99824.50;;;14.95
82780;BMP280;72511;45.120;20.720;2024-03-02T15:28:09;99831.28;;;14.76
82780;BMP280;72511;45.120;20.720;2024-03-02T15:38:10;99830.47;;;14.43
82780;BMP280;72511;45.120;20.720;2024-03-02T15:48:16;99832.09;;;14.08
82780;BMP280;72511;45.120;20.720;2024-03-02T15:58:18;99840.69;;;13.70
82780;BMP280;72511;45.120;20.720;2024-03-02T16:08:19;99841.28;;;13.29
82780;BMP280;72511;45.120;20.720;2024-03-02T16:18:21;99849.59;;;12.86
82780;BMP280;72511;45.120;20.720;2024-03-02T16:28:23;99866.38;;;12.42
82780;BMP280;72511;45.120;20.720;2024-03-02T16:38:24;99862.56;;;11.96
82780;BMP280;72511;45.120;20.720;2024-03-02T16:48:25;99880.31;;;11.63
82780;BMP280;72511;45.120;20.720;2024-03-02T16:58:27;99872.59;;;11.15
82780;BMP280;72511;45.120;20.720;2024-03-02T17:08:28;99880.16;;;10.83
82780;BMP280;72511;45.120;20.720;2024-03-02T17:18:30;99897.72;;;10.62
82780;BMP280;72511;45.120;20.720;2024-03-02T17:28:32;99907.63;;;10.40
82780;BMP280;72511;45.120;20.720;2024-03-02T17:38:33;99894.09;;;10.12
82780;BMP280;72511;45.120;20.720;2024-03-02T17:48:34;99923.28;;;9.88
82780;BMP280;72511;45.120;20.720;2024-03-02T17:58:36;99927.91;;;9.72
82780;BMP280;72511;45.120;20.720;2024-03-02T18:08:37;99946.94;;;9.49
82780;BMP280;72511;45.120;20.720;2024-03-02T18:18:39;99942.34;;;9.30
82780;BMP280;72511;45.120;20.720;2024-03-02T18:28:40;99946.50;;;8.99
82780;BMP280;72511;45.120;20.720;2024-03-02T18:38:43;99950.97;;;8.66
82780;BMP280;72511;45.120;20.720;2024-03-02T18:48:44;99952.81;;;8.50
82780;BMP280;72511;45.120;20.720;2024-03-02T18:58:46;99962.78;;;8.30
82780;BMP280;72511;45.120;20.720;2024-03-02T19:08:48;99973.16;;;8.08
82780;BMP280;72511;45.120;20.720;2024-03-02T19:18:49;99955.13;;;7.79
82780;BMP280;72511;45.120;20.720;2024-03-02T19:28:51;99968.31;;;7.70
82780;BMP280;72511;45.120;20.720;2024-03-02T19:38:53;99971.53;;;7.58
82780;BMP280;72511;45.120;20.720;2024-03-02T19:48:54;99977.03;;;7.51
82780;BMP280;72511;45.120;20.720;2024-03-02T19:58:56;99972.22;;;7.35
82780;BMP280;72511;45.120;20.720;2024-03-02T20:08:57;99981.59;;;7.23
82780;BMP280;72511;45.120;20.720;2024-03-02T20:18:59;99973.63;;;7.17
82780;BMP280;72511;45.120;20.720;2024-03-02T20:29:00;99987.59;;;7.04
82780;BMP280;72511;45.120;20.720;2024-03-02T20:39:02;99986.00;;;7.11
82780;BMP280;72511;45.120;20.720;2024-03-02T20:49:06;99962.72;;;6.97
82780;BMP280;72511;45.120;20.720;2024-03-02T20:59:08;99977.47;;;7.16
82780;BMP280;72511;45.120;20.720;2024-03-02T21:09:10;99982.34;;;7.28
82780;BMP280;72511;45.120;20.720;2024-03-02T21:19:11;99985.75;;;7.32
82780;BMP280;72511;45.120;20.720;2024-03-02T21:29:16;99981.38;;;7.45
82780;BMP280;72511;45.120;20.720;2024-03-02T21:39:20;99975.44;;;7.57
82780;BMP280;72511;45.120;20.720;2024-03-02T21:49:22;99988.91;;;7.57
82780;BMP280;72511;45.120;20.720;2024-03-02T21:59:23;99990.25;;;7.42
82780;BMP280;72511;45.120;20.720;2024-03-02T22:09:24;99993.81;;;7.32
82780;BMP280;72511;45.120;20.720;2024-03-02T22:19:26;100004.53;;;7.35
82780;BMP280;72511;45.120;20.720;2024-03-02T22:29:27;99995.00;;;7.27
82780;BMP280;72511;45.120;20.720;2024-03-02T22:39:30;99996.25;;;7.19
82780;BMP280;72511;45.120;20.720;2024-03-02T22:49:31;100004.00;;;7.13
82780;BMP280;72511;45.120;20.720;2024-03-02T22:59:33;100003.34;;;7.06
82780;BMP280;72511;45.120;20.720;2024-03-02T23:09:36;99994.88;;;7.07
82780;BMP280;72511;45.120;20.720;2024-03-02T23:19:38;99992.66;;;6.95
82780;BMP280;72511;45.120;20.720;2024-03-02T23:29:40;99995.91;;;6.80
82780;BMP280;72511;45.120;20.720;2024-03-02T23:39:41;99983.00;;;6.64
82780;BMP280;72511;45.120;20.720;2024-03-02T23:50:01;100007.13;;;6.71
